createdAt,value
2022-08-30T00:01:14.365Z,49.10
2022-08-30T00:03:43.861Z,49.40
2022-08-30T00:06:13.205Z,49.50
2022-08-30T00:08:40.726Z,49.60
2022-08-30T00:11:10.300Z,49.20
2022-08-30T00:13:37.507Z,48.80
2022-08-30T00:16:05.332Z,48.40
2022-08-30T00:18:32.282Z,48.40
2022-08-30T00:20:59.869Z,48.80
2022-08-30T00:23:27.937Z,48.50
2022-08-30T00:25:54.696Z,48.80
2022-08-30T00:28:21.418Z,48.80
2022-08-30T00:30:48.261Z,48.90
2022-08-30T00:33:15.376Z,49.10
2022-08-30T00:35:42.747Z,49.20
2022-08-30T00:38:11.676Z,49.70
2022-08-30T00:40:43.895Z,50.00
2022-08-30T00:43:14.632Z,50.00
2022-08-30T00:45:41.468Z,49.90
2022-08-30T00:48:08.349Z,49.80
2022-08-30T00:50:39.864Z,50.30
2022-08-30T00:53:10.450Z,50.30
2022-08-30T00:55:41.939Z,50.70
2022-08-30T00:58:15.557Z,50.10
2022-08-30T01:00:42.403Z,50.30
2022-08-30T01:03:09.291Z,50.60
2022-08-30T01:05:37.297Z,51.10
2022-08-30T01:08:04.023Z,50.90
2022-08-30T01:10:30.877Z,50.80
2022-08-30T01:12:57.584Z,50.80
2022-08-30T01:15:26.147Z,49.80
2022-08-30T01:17:54.879Z,49.20
2022-08-30T01:20:27.048Z,48.50
2022-08-30T01:23:06.255Z,48.40
2022-08-30T01:25:35.813Z,50.50
2022-08-30T01:28:06.053Z,51.60
2022-08-30T01:30:33.377Z,52.20
2022-08-30T01:33:04.019Z,51.60
2022-08-30T01:35:36.907Z,50.10
2022-08-30T01:38:05.092Z,50.90
2022-08-30T01:40:31.870Z,51.50
2022-08-30T01:42:58.632Z,51.80
2022-08-30T01:45:25.402Z,51.10
2022-08-30T01:47:52.073Z,49.30
2022-08-30T01:50:18.748Z,49.10
2022-08-30T01:52:45.440Z,50.40
2022-08-30T01:55:13.562Z,51.40
2022-08-30T01:57:40.525Z,51.50
2022-08-30T02:00:09.513Z,51.10
2022-08-30T02:02:36.242Z,51.40
2022-08-30T02:05:03.784Z,51.30
2022-08-30T02:07:30.604Z,51.00
2022-08-30T02:09:57.355Z,51.00
2022-08-30T02:12:25.519Z,51.40
2022-08-30T02:14:52.256Z,51.70
2022-08-30T02:17:18.954Z,52.00
2022-08-30T02:19:46.125Z,51.80
2022-08-30T02:22:12.873Z,51.30
2022-08-30T02:24:39.769Z,51.10
2022-08-30T02:27:06.897Z,52.10
2022-08-30T02:29:34.991Z,53.00
2022-08-30T02:32:01.826Z,51.60
2022-08-30T02:34:28.603Z,50.90
2022-08-30T02:36:55.279Z,51.40
2022-08-30T02:39:22.365Z,51.70
2022-08-30T02:41:49.389Z,51.40
2022-08-30T02:44:16.855Z,51.40
2022-08-30T02:46:44.875Z,51.60
2022-08-30T02:51:58.245Z,51.10
2022-08-30T02:54:25.059Z,51.00
2022-08-30T02:56:51.761Z,51.00
2022-08-30T02:59:18.729Z,51.50
2022-08-30T03:01:46.980Z,51.50
2022-08-30T03:04:13.748Z,52.30
2022-08-30T03:06:40.480Z,52.40
2022-08-30T03:09:07.213Z,52.70
2022-08-30T03:11:33.871Z,52.50
2022-08-30T03:14:00.548Z,52.30
2022-08-30T03:16:27.382Z,52.00
2022-08-30T03:18:55.771Z,52.00
2022-08-30T03:21:22.510Z,51.90
2022-08-30T03:23:49.258Z,52.20
2022-08-30T03:26:16.048Z,51.70
2022-08-30T03:28:43.290Z,52.10
2022-08-30T03:31:10.474Z,51.80
2022-08-30T03:33:37.753Z,51.20
2022-08-30T03:36:06.349Z,52.00
2022-08-30T03:38:33.616Z,50.90
2022-08-30T03:41:00.278Z,50.80
2022-08-30T03:43:27.122Z,51.00
2022-08-30T03:45:53.950Z,51.20
2022-08-30T03:48:20.698Z,50.90
2022-08-30T03:50:47.629Z,51.70
2022-08-30T03:53:15.803Z,51.20
2022-08-30T03:55:42.965Z,51.60
2022-08-30T03:58:10.018Z,51.80
2022-08-30T04:00:37.290Z,52.50
2022-08-30T04:03:04.093Z,52.70
2022-08-30T04:05:31.315Z,52.50
2022-08-30T04:07:58.056Z,51.10
2022-08-30T04:10:26.107Z,51.20
2022-08-30T04:12:52.933Z,51.90
2022-08-30T04:15:20.042Z,52.30
2022-08-30T04:17:47.307Z,52.10
2022-08-30T04:20:14.935Z,50.60
2022-08-30T04:22:41.659Z,51.10
2022-08-30T04:25:15.630Z,50.50
2022-08-30T04:27:44.329Z,51.20
2022-08-30T04:30:12.336Z,51.50
2022-08-30T04:32:39.192Z,52.00
2022-08-30T04:35:06.869Z,52.30
2022-08-30T04:37:33.745Z,52.20
2022-08-30T04:40:00.507Z,52.60
2022-08-30T04:42:27.545Z,52.80
2022-08-30T04:44:55.618Z,52.30
2022-08-30T04:47:22.331Z,52.60
2022-08-30T04:49:49.507Z,52.60
2022-08-30T04:52:16.236Z,52.30
2022-08-30T04:54:42.939Z,52.50
2022-08-30T04:57:09.621Z,53.20
2022-08-30T04:59:37.896Z,53.30
2022-08-30T05:02:06.190Z,53.70
2022-08-30T05:04:32.886Z,53.30
2022-08-30T05:06:59.636Z,54.10
2022-08-30T05:09:26.384Z,54.20
2022-08-30T05:11:53.082Z,52.70
2022-08-30T05:14:19.784Z,53.90
2022-08-30T05:16:46.530Z,53.90
2022-08-30T05:19:14.645Z,54.00
2022-08-30T05:21:41.446Z,53.00
2022-08-30T05:24:08.328Z,53.60
2022-08-30T05:26:38.050Z,52.70
2022-08-30T05:29:04.770Z,53.60
2022-08-30T05:31:34.745Z,53.30
2022-08-30T05:34:01.838Z,53.30
2022-08-30T05:36:31.828Z,54.20
2022-08-30T05:38:58.967Z,53.60
2022-08-30T05:41:27.226Z,53.70
2022-08-30T05:43:54.692Z,53.50
2022-08-30T05:46:21.551Z,54.00
2022-08-30T05:48:49.515Z,53.80
2022-08-30T05:51:20.305Z,52.10
2022-08-30T05:53:50.027Z,53.20
2022-08-30T05:56:20.065Z,53.50
2022-08-30T05:58:47.746Z,52.10
2022-08-30T06:01:24.770Z,51.40
2022-08-30T06:03:52.494Z,51.60
2022-08-30T06:06:19.240Z,52.00
2022-08-30T06:08:45.995Z,52.10
2022-08-30T06:11:15.035Z,51.70
2022-08-30T06:13:41.909Z,52.30
2022-08-30T06:16:10.468Z,52.20
2022-08-30T06:18:37.403Z,52.20
2022-08-30T06:21:04.508Z,52.30
2022-08-30T06:23:31.243Z,52.40
2022-08-30T06:26:03.635Z,53.20
2022-08-30T06:28:31.748Z,52.70
2022-08-30T06:30:58.712Z,52.40
2022-08-30T06:33:25.609Z,52.30
2022-08-30T06:35:59.058Z,52.30
2022-08-30T06:38:26.728Z,52.30
2022-08-30T06:40:53.461Z,52.30
2022-08-30T06:43:20.729Z,52.60
2022-08-30T06:45:48.802Z,52.70
2022-08-30T06:48:15.779Z,53.00
2022-08-30T06:50:42.847Z,52.90
2022-08-30T06:53:09.669Z,53.40
2022-08-30T06:55:37.417Z,53.10
2022-08-30T06:58:04.652Z,53.40
2022-08-30T07:00:31.348Z,53.00
2022-08-30T07:02:59.419Z,52.80
2022-08-30T07:05:26.236Z,52.70
2022-08-30T07:07:53.003Z,52.30
2022-08-30T07:10:20.339Z,52.50
2022-08-30T07:12:47.577Z,53.50
2022-08-30T07:15:14.707Z,53.60
2022-08-30T07:17:41.450Z,53.30
2022-08-30T07:20:10.279Z,53.10
2022-08-30T07:22:36.978Z,54.00
2022-08-30T07:25:04.263Z,53.90
2022-08-30T07:27:31.666Z,52.50
2022-08-30T07:29:58.441Z,51.80
2022-08-30T07:32:25.140Z,52.70
2022-08-30T07:34:51.994Z,53.00
2022-08-30T07:37:20.267Z,52.90
2022-08-30T07:39:48.034Z,51.90
2022-08-30T07:42:15.186Z,51.10
2022-08-30T07:44:42.238Z,51.80
2022-08-30T07:47:09.114Z,52.50
2022-08-30T07:49:37.609Z,52.30
2022-08-30T07:52:04.783Z,52.20
2022-08-30T07:54:32.971Z,50.90
2022-08-30T07:56:59.766Z,50.90
2022-08-30T07:59:26.772Z,51.40
2022-08-30T08:01:53.767Z,50.90
2022-08-30T08:04:21.630Z,50.80
2022-08-30T08:06:48.363Z,50.90
2022-08-30T08:09:15.044Z,51.10
2022-08-30T08:11:43.069Z,51.60
2022-08-30T08:14:10.328Z,51.60
2022-08-30T08:16:37.917Z,51.90
2022-08-30T08:19:05.611Z,51.20
2022-08-30T08:21:32.283Z,50.80
2022-08-30T08:23:59.034Z,51.40
2022-08-30T08:26:25.766Z,51.90
2022-08-30T08:28:53.842Z,51.90
2022-08-30T08:31:23.671Z,51.80
2022-08-30T08:33:54.464Z,50.80
2022-08-30T08:36:21.235Z,50.40
2022-08-30T08:38:48.037Z,50.70
2022-08-30T08:41:29.038Z,51.20
2022-08-30T08:43:57.539Z,51.10
2022-08-30T08:46:30.028Z,50.80
2022-08-30T08:49:02.338Z,51.40
2022-08-30T08:51:32.718Z,51.30
2022-08-30T08:54:04.740Z,50.90
2022-08-30T08:56:33.119Z,50.30
2022-08-30T08:59:01.267Z,50.10
2022-08-30T09:01:30.132Z,50.70
2022-08-30T09:03:59.248Z,50.20
2022-08-30T09:06:45.463Z,50.10
2022-08-30T09:09:12.819Z,50.00
2022-08-30T09:11:41.365Z,50.20
2022-08-30T09:14:15.826Z,50.30
2022-08-30T09:16:48.093Z,49.90
2022-08-30T09:19:29.554Z,50.40
2022-08-30T09:22:03.740Z,49.70
2022-08-30T09:24:38.706Z,49.40
2022-08-30T09:27:23.780Z,49.50
2022-08-30T09:29:55.730Z,49.30
2022-08-30T09:32:28.855Z,49.50
2022-08-30T09:34:56.194Z,48.80
2022-08-30T09:37:27.275Z,49.10
2022-08-30T09:39:54.086Z,48.70
2022-08-30T09:42:24.871Z,48.90
2022-08-30T09:44:53.893Z,48.50
2022-08-30T09:47:24.256Z,48.00
2022-08-30T09:50:03.605Z,47.80
2022-08-30T09:52:39.823Z,48.00
2022-08-30T09:55:21.082Z,48.00
2022-08-30T09:57:54.411Z,47.80
2022-08-30T10:00:24.705Z,48.00
2022-08-30T10:03:12.398Z,48.30
2022-08-30T10:05:49.201Z,48.00
2022-08-30T10:08:25.252Z,47.50
2022-08-30T10:10:56.903Z,48.20
2022-08-30T10:13:48.903Z,48.40
2022-08-30T10:16:25.213Z,47.70
2022-08-30T10:19:02.646Z,47.10
2022-08-30T10:21:39.011Z,46.20
2022-08-30T10:24:10.610Z,46.10
2022-08-30T10:26:43.476Z,45.90
2022-08-30T10:29:14.699Z,46.60
2022-08-30T10:31:49.134Z,46.60
2022-08-30T10:34:20.596Z,46.00
2022-08-30T10:36:52.607Z,46.10
2022-08-30T10:39:23.376Z,46.60
2022-08-30T10:41:54.966Z,46.10
2022-08-30T10:44:26.371Z,45.20
2022-08-30T10:47:06.130Z,44.70
2022-08-30T10:49:37.253Z,45.60
2022-08-30T10:52:21.482Z,45.00
2022-08-30T10:54:51.165Z,44.80
2022-08-30T10:57:19.559Z,45.00
2022-08-30T10:59:52.836Z,44.00
2022-08-30T11:03:18.181Z,43.50
2022-08-30T11:06:08.787Z,42.70
2022-08-30T11:08:53.773Z,43.80
2022-08-30T11:11:31.030Z,43.00
2022-08-30T11:14:05.496Z,42.40
2022-08-30T11:16:37.815Z,42.20
2022-08-30T11:19:16.564Z,41.60
2022-08-30T11:21:46.533Z,41.20
2022-08-30T11:24:16.297Z,41.30
2022-08-30T11:27:01.352Z,42.70
2022-08-30T11:29:34.789Z,42.60
2022-08-30T11:32:34.427Z,42.80
2022-08-30T11:35:05.018Z,42.60
2022-08-30T11:37:41.477Z,41.90
2022-08-30T11:40:48.971Z,42.50
2022-08-30T11:43:50.923Z,40.40
2022-08-30T11:46:34.634Z,40.50
2022-08-30T11:49:10.005Z,39.80
2022-08-30T11:55:15.548Z,40.40
2022-08-30T11:57:50.046Z,39.10
2022-08-30T12:00:29.933Z,39.90
2022-08-30T12:03:00.391Z,40.30
2022-08-30T12:05:48.025Z,39.00
2022-08-30T12:08:44.826Z,40.40
2022-08-30T12:11:59.484Z,41.10
2022-08-30T12:14:40.935Z,40.50
2022-08-30T12:17:15.247Z,40.30
2022-08-30T12:19:49.081Z,40.60
2022-08-30T12:22:18.943Z,37.60
2022-08-30T12:24:52.551Z,39.60
2022-08-30T12:27:22.971Z,39.80
2022-08-30T12:29:51.363Z,36.70
2022-08-30T12:32:19.291Z,39.80
2022-08-30T12:34:52.575Z,39.60
2022-08-30T12:37:25.487Z,39.10
2022-08-30T12:40:09.027Z,39.30
2022-08-30T12:42:37.898Z,38.40
2022-08-30T12:45:10.674Z,39.00
2022-08-30T12:47:45.584Z,36.20
2022-08-30T12:50:20.149Z,38.20
2022-08-30T12:52:55.464Z,37.10
2022-08-30T12:55:27.284Z,37.80
2022-08-30T12:58:01.142Z,35.40
2022-08-30T13:00:29.847Z,36.60
2022-08-30T13:02:59.141Z,37.40
2022-08-30T13:05:34.093Z,37.00
2022-08-30T13:08:13.694Z,37.80
2022-08-30T13:10:52.363Z,35.60
2022-08-30T13:13:39.966Z,36.20
2022-08-30T13:16:23.516Z,35.50
2022-08-30T13:18:51.667Z,33.20
2022-08-30T13:21:27.109Z,33.00
2022-08-30T13:23:57.569Z,35.00
2022-08-30T13:26:25.967Z,33.50
2022-08-30T13:28:55.840Z,31.80
2022-08-30T13:31:22.811Z,31.80
2022-08-30T13:33:49.723Z,32.80
2022-08-30T13:36:16.668Z,31.00
2022-08-30T13:38:43.356Z,30.10
2022-08-30T13:41:10.869Z,31.80
2022-08-30T13:46:27.643Z,32.60
2022-08-30T13:48:59.578Z,31.00
2022-08-30T13:51:26.299Z,30.90
2022-08-30T13:53:53.705Z,31.10
2022-08-30T13:56:21.454Z,30.30
2022-08-30T13:58:49.601Z,30.00
2022-08-30T14:01:16.434Z,31.40
2022-08-30T14:06:33.958Z,31.80
2022-08-30T14:09:03.822Z,33.60
2022-08-30T14:11:31.339Z,33.90
2022-08-30T14:14:15.121Z,34.00
2022-08-30T14:16:45.113Z,34.00
2022-08-30T14:19:13.986Z,33.40
2022-08-30T14:21:41.160Z,33.20
2022-08-30T14:24:08.287Z,32.90
2022-08-30T14:26:38.093Z,33.30
2022-08-30T14:29:09.140Z,33.90
2022-08-30T14:31:36.604Z,34.50
2022-08-30T14:34:05.146Z,35.20
2022-08-30T14:36:33.779Z,35.00
2022-08-30T14:39:00.638Z,34.80
2022-08-30T14:41:27.577Z,35.00
2022-08-30T14:43:54.350Z,34.90
2022-08-30T14:46:22.436Z,35.50
2022-08-30T14:48:50.387Z,35.50
2022-08-30T14:51:20.094Z,35.30
2022-08-30T14:53:48.370Z,35.90
2022-08-30T14:56:19.483Z,35.40
2022-08-30T14:58:48.374Z,34.90
2022-08-30T15:01:15.169Z,35.70
2022-08-30T15:03:44.336Z,34.80
2022-08-30T15:06:11.886Z,33.90
2022-08-30T15:08:39.738Z,33.70
2022-08-30T15:11:11.369Z,34.00
2022-08-30T15:13:39.020Z,34.60
2022-08-30T15:16:11.304Z,34.00
2022-08-30T15:18:38.123Z,33.60
2022-08-30T15:21:06.942Z,33.70
2022-08-30T15:23:33.983Z,33.80
2022-08-30T15:26:00.735Z,33.50
2022-08-30T15:28:27.489Z,33.70
2022-08-30T15:30:54.357Z,33.50
2022-08-30T15:33:21.431Z,33.30
2022-08-30T15:35:48.470Z,33.60
2022-08-30T15:38:16.625Z,33.60
2022-08-30T15:40:44.483Z,33.40
2022-08-30T15:43:11.295Z,33.60
2022-08-30T15:45:37.977Z,33.50
2022-08-30T15:48:04.791Z,33.20
2022-08-30T15:50:31.512Z,34.00
2022-08-30T15:52:58.199Z,33.70
2022-08-30T15:55:26.429Z,33.60
2022-08-30T15:57:53.238Z,33.40
2022-08-30T16:00:20.061Z,33.30
2022-08-30T16:02:46.717Z,33.80
2022-08-30T16:05:13.841Z,35.40
2022-08-30T16:07:41.136Z,36.40
2022-08-30T16:10:09.018Z,36.80
2022-08-30T16:12:37.039Z,36.90
2022-08-30T16:15:04.444Z,37.20
2022-08-30T16:17:31.197Z,37.50
2022-08-30T16:19:58.891Z,37.80
2022-08-30T16:22:25.956Z,38.20
2022-08-30T16:24:52.744Z,38.70
2022-08-30T16:27:19.486Z,38.80
2022-08-30T16:29:49.976Z,38.80
2022-08-30T16:32:17.460Z,38.70
2022-08-30T16:34:44.259Z,38.90
2022-08-30T16:37:11.106Z,39.20
2022-08-30T16:39:37.806Z,39.10
2022-08-30T16:42:06.585Z,39.70
2022-08-30T16:44:33.931Z,40.10
2022-08-30T16:47:03.002Z,39.50
2022-08-30T16:49:29.845Z,39.60
2022-08-30T16:51:56.626Z,39.40
2022-08-30T16:54:23.614Z,39.60
2022-08-30T16:56:50.810Z,39.80
2022-08-30T16:59:17.850Z,39.80
2022-08-30T17:01:45.796Z,39.90
2022-08-30T17:04:19.396Z,40.10
2022-08-30T17:06:47.373Z,40.40
2022-08-30T17:09:15.179Z,40.00
2022-08-30T17:11:41.945Z,40.00
2022-08-30T17:14:10.106Z,40.00
2022-08-30T17:16:37.398Z,40.30
2022-08-30T17:19:05.556Z,40.60
2022-08-30T17:21:34.350Z,40.70
2022-08-30T17:24:01.842Z,40.80
2022-08-30T17:26:32.386Z,41.00
2022-08-30T17:28:59.345Z,41.10
2022-08-30T17:31:26.854Z,41.30
2022-08-30T17:34:00.488Z,41.30
2022-08-30T17:36:27.888Z,41.60
2022-08-30T17:38:56.306Z,41.90
2022-08-30T17:41:23.491Z,42.30
2022-08-30T17:43:50.215Z,43.20
2022-08-30T17:46:16.952Z,43.10
2022-08-30T17:48:44.624Z,43.10
2022-08-30T17:51:11.836Z,42.90
2022-08-30T17:53:38.711Z,42.80
2022-08-30T17:56:09.591Z,42.90
2022-08-30T17:58:36.397Z,43.10
2022-08-30T18:01:11.605Z,43.10
2022-08-30T18:03:39.088Z,43.40
2022-08-30T18:06:07.233Z,43.30
2022-08-30T18:08:34.555Z,43.40
2022-08-30T18:11:01.527Z,43.50
2022-08-30T18:13:29.667Z,43.40
2022-08-30T18:15:56.664Z,43.50
2022-08-30T18:18:24.469Z,43.70
2022-08-30T18:20:53.125Z,43.70
2022-08-30T18:23:20.166Z,44.00
2022-08-30T18:25:55.432Z,44.20
2022-08-30T18:28:22.251Z,44.50
2022-08-30T18:30:50.359Z,44.40
2022-08-30T18:33:17.037Z,44.50
2022-08-30T18:35:48.220Z,44.40
2022-08-30T18:38:15.043Z,44.30
2022-08-30T18:40:42.118Z,44.50
2022-08-30T18:43:10.502Z,44.50
2022-08-30T18:45:38.797Z,44.40
2022-08-30T18:48:06.958Z,44.50
2022-08-30T18:50:34.268Z,44.40
2022-08-30T18:53:01.526Z,46.00
2022-08-30T18:55:28.666Z,45.80
2022-08-30T18:57:55.445Z,45.50
2022-08-30T19:00:23.761Z,45.50
2022-08-30T19:02:50.620Z,46.00
2022-08-30T19:05:19.516Z,45.40
2022-08-30T19:07:46.969Z,45.50
2022-08-30T19:10:20.946Z,45.30
2022-08-30T19:12:48.009Z,45.30
2022-08-30T19:15:15.381Z,45.20
2022-08-30T19:17:44.417Z,45.40
2022-08-30T19:20:12.697Z,45.50
2022-08-30T19:23:06.285Z,45.30
2022-08-30T19:25:27.920Z,45.30
2022-08-30T19:27:55.835Z,45.20
2022-08-30T19:30:29.388Z,45.50
2022-08-30T19:32:56.784Z,45.30
2022-08-30T19:35:25.028Z,45.10
2022-08-30T19:37:53.151Z,45.10
2022-08-30T19:40:21.362Z,45.10
2022-08-30T19:42:48.583Z,45.20
2022-08-30T19:45:17.493Z,45.20
2022-08-30T19:47:45.425Z,45.20
2022-08-30T19:50:14.376Z,45.20
2022-08-30T19:52:41.132Z,45.50
2022-08-30T19:55:09.990Z,45.30
2022-08-30T19:57:37.535Z,45.20
2022-08-30T20:00:06.582Z,45.00
2022-08-30T20:02:33.258Z,45.10
2022-08-30T20:05:00.132Z,45.10
2022-08-30T20:07:27.700Z,45.10
2022-08-30T20:09:55.180Z,45.20
2022-08-30T20:12:23.286Z,45.40
2022-08-30T20:14:49.957Z,45.40
2022-08-30T20:17:18.822Z,45.40
2022-08-30T20:19:45.528Z,45.40
2022-08-30T20:22:12.212Z,45.50
2022-08-30T20:24:43.681Z,45.10
2022-08-30T20:27:11.215Z,45.20
2022-08-30T20:29:39.273Z,45.40
2022-08-30T20:32:06.051Z,45.20
2022-08-30T20:34:32.771Z,45.40
2022-08-30T20:36:59.437Z,45.60
2022-08-30T20:39:26.194Z,45.30
2022-08-30T20:41:53.754Z,45.50
2022-08-30T20:44:20.464Z,45.60
2022-08-30T20:46:48.850Z,45.60
2022-08-30T20:49:15.692Z,46.40
2022-08-30T20:51:42.754Z,45.70
2022-08-30T20:54:09.677Z,45.60
2022-08-30T20:56:36.621Z,45.60
2022-08-30T20:59:04.816Z,45.70
2022-08-30T21:01:33.906Z,45.80
2022-08-30T21:04:04.189Z,45.80
2022-08-30T21:06:30.914Z,45.80
2022-08-30T21:08:57.643Z,45.60
2022-08-30T21:11:24.336Z,45.50
2022-08-30T21:13:51.034Z,45.50
2022-08-30T21:16:22.004Z,45.90
2022-08-30T21:18:49.264Z,45.20
2022-08-30T21:21:19.210Z,45.70
2022-08-30T21:23:45.900Z,45.40
2022-08-30T21:26:12.623Z,45.30
2022-08-30T21:28:39.361Z,45.30
2022-08-30T21:31:08.842Z,45.40
2022-08-30T21:33:38.251Z,45.40
2022-08-30T21:36:05.997Z,45.30
2022-08-30T21:38:34.067Z,45.50
2022-08-30T21:41:00.767Z,45.80
2022-08-30T21:43:27.454Z,45.60
2022-08-30T21:45:54.186Z,45.60
2022-08-30T21:48:20.887Z,45.70
2022-08-30T21:50:47.594Z,45.90
2022-08-30T21:53:15.498Z,45.70
2022-08-30T21:55:45.366Z,45.90
2022-08-30T21:58:14.746Z,46.10
2022-08-30T22:00:41.492Z,45.90
2022-08-30T22:03:08.302Z,45.90
2022-08-30T22:05:35.062Z,45.90
2022-08-30T22:08:01.959Z,45.90
2022-08-30T22:10:32.862Z,45.90
2022-08-30T22:13:01.342Z,45.90
2022-08-30T22:15:30.630Z,46.00
2022-08-30T22:17:57.357Z,46.70
2022-08-30T22:20:24.081Z,46.20
2022-08-30T22:22:50.743Z,46.30
2022-08-30T22:25:17.607Z,46.30
2022-08-30T22:27:44.284Z,46.20
2022-08-30T22:30:13.080Z,46.10
2022-08-30T22:32:39.774Z,46.40
2022-08-30T22:35:07.699Z,46.40
2022-08-30T22:37:34.403Z,46.30
2022-08-30T22:40:01.321Z,46.60
2022-08-30T22:42:28.064Z,46.70
2022-08-30T22:44:54.764Z,46.80
2022-08-30T22:47:22.846Z,46.80
2022-08-30T22:49:49.635Z,47.10
2022-08-30T22:52:16.325Z,47.00
2022-08-30T22:54:43.043Z,47.10
2022-08-30T22:57:10.597Z,46.90
2022-08-30T22:59:37.284Z,47.00
2022-08-30T23:02:04.316Z,47.00
2022-08-30T23:04:32.592Z,47.20
2022-08-30T23:06:59.281Z,47.20
2022-08-30T23:09:26.028Z,47.20
2022-08-30T23:11:52.739Z,47.30
2022-08-30T23:14:19.433Z,47.00
2022-08-30T23:16:46.229Z,47.20
2022-08-30T23:19:13.105Z,47.20
2022-08-30T23:21:41.620Z,47.20
2022-08-30T23:24:09.008Z,47.30
2022-08-30T23:26:39.522Z,47.20
2022-08-30T23:29:07.033Z,47.30
2022-08-30T23:31:33.752Z,47.40
2022-08-30T23:34:00.810Z,47.20
2022-08-30T23:36:27.528Z,47.40
2022-08-30T23:38:55.845Z,47.50
2022-08-30T23:41:22.785Z,47.50
2022-08-30T23:44:00.491Z,47.50
2022-08-30T23:46:27.223Z,47.50
2022-08-30T23:48:53.873Z,47.70
2022-08-30T23:51:22.068Z,47.60
2022-08-30T23:53:49.694Z,47.50
2022-08-30T23:56:17.733Z,47.60
2022-08-30T23:58:44.436Z,47.80
